PWSweather.com
Personal Weather Stations
Station Observations
CANEBAS
Del Rey Hills , Orinda, CA 94563

Del Rey Hills Orinda, CA 94563

Lat: 37.851111, Lon: -122.155

Elevation: 725

Station Type: Davis Vantage Pro-2

http://www.canebas.org/Weather/

Latest ConditionsUpdated 2:54:18 PM PST Sunday, Jan 19, 2020
Currently Today's Max Today's Min Today's Average
Temperature 49.9°F9.9°C 52.2°F11.2°C 45.6°F7.6°C 48.2°F9.0°C
Dew Point 43.6°F6.4°C 43.7°F6.5°C 36.1°F2.3°C 38.8°F3.8°C
Winds Calm Calm 9.0 mph -14.5 kmh - - 1.7 mph 2.7 kmh
Wind Gusts 1.0 mph1.6 kmh 12.0 mph19.3 kmh - -
Humidity 79% 79% 64% 70%
Pressure 30.04 in1017.3 mb 30.21 in1023.0 mb 30.04 in1017.3 mb -
Hour Temp Dew Point Humidity Winds Wind Gusts Pressure Precip Precip Rate Daily Precip Total
02:54 PM 49.9°F9.9°C 43.6°F6.4°C 79% Calm Calm 1.0 mph1.6 kmh 30.04 in1017.3 mb 0.00 in0.0 mm 0.00 in0.0 mm 0.00 in0.0 mm
02:49 PM 49.7°F9.8°C 43.1°F6.2°C 78% Calm Calm 1.0 mph1.6 kmh 30.04 in1017.3 mb 0.00 in0.0 mm 0.00 in0.0 mm 0.00 in0.0 mm
02:44 PM 49.6°F9.8°C 42.7°F5.9°C 77% Calm Calm 2.0 mph3.2 kmh 30.04 in1017.3 mb 0.00 in0.0 mm 0.00 in0.0 mm 0.00 in0.0 mm
02:39 PM 49.6°F9.8°C 43.0°F6.1°C 78% Calm Calm 3.0 mph4.8 kmh 30.04 in1017.3 mb 0.00 in0.0 mm 0.00 in0.0 mm 0.00 in0.0 mm
02:34 PM 49.4°F9.7°C 42.8°F6.0°C 78% 1.0 mph E1.6 kmh E 3.0 mph4.8 kmh 30.04 in1017.3 mb 0.00 in0.0 mm 0.00 in0.0 mm 0.00 in0.0 mm
02:29 PM 49.5°F9.7°C 42.9°F6.1°C 78% 1.0 mph NNW1.6 kmh NNW 3.0 mph4.8 kmh 30.04 in1017.3 mb 0.00 in0.0 mm 0.00 in0.0 mm 0.00 in0.0 mm
02:24 PM 49.3°F9.6°C 42.7°F5.9°C 78% 1.0 mph ESE1.6 kmh ESE 3.0 mph4.8 kmh 30.04 in1017.3 mb 0.00 in0.0 mm 0.00 in0.0 mm 0.00 in0.0 mm
02:19 PM 49.7°F9.8°C 42.8°F6.0°C 77% 1.0 mph NNW1.6 kmh NNW 3.0 mph4.8 kmh 30.04 in1017.3 mb 0.00 in0.0 mm 0.00 in0.0 mm 0.00 in0.0 mm
02:14 PM 49.7°F9.8°C 42.8°F6.0°C 77% Calm Calm 2.0 mph3.2 kmh 30.05 in1017.6 mb 0.00 in0.0 mm 0.00 in0.0 mm 0.00 in0.0 mm
02:09 PM 50.1°F10.1°C 43.2°F6.2°C 77% 1.0 mph E1.6 kmh E 2.0 mph3.2 kmh 30.04 in1017.3 mb 0.00 in0.0 mm 0.00 in0.0 mm 0.00 in0.0 mm
02:04 PM 50.2°F10.1°C 43.3°F6.3°C 77% 1.0 mph ESE1.6 kmh ESE 2.0 mph3.2 kmh 30.05 in1017.6 mb 0.00 in0.0 mm 0.00 in0.0 mm 0.00 in0.0 mm
01:59 PM 50.1°F10.1°C 42.8°F6.0°C 76% Calm Calm 8.0 mph12.9 kmh 30.05 in1017.6 mb 0.00 in0.0 mm 0.00 in0.0 mm 0.00 in0.0 mm
01:54 PM 50.4°F10.2°C 43.5°F6.4°C 77% 1.0 mph E1.6 kmh E 8.0 mph12.9 kmh 30.05 in1017.6 mb 0.00 in0.0 mm 0.00 in0.0 mm 0.00 in0.0 mm
01:49 PM 50.1°F10.1°C 42.8°F6.0°C 76% Calm Calm 8.0 mph12.9 kmh 30.05 in1017.6 mb 0.00 in0.0 mm 0.00 in0.0 mm 0.00 in0.0 mm
01:44 PM 50.7°F10.4°C 43.4°F6.3°C 76% 3.0 mph N4.8 kmh N 8.0 mph12.9 kmh 30.05 in1017.6 mb 0.00 in0.0 mm 0.00 in0.0 mm 0.00 in0.0 mm
01:39 PM 50.8°F10.4°C 43.5°F6.4°C 76% 1.0 mph NNE1.6 kmh NNE 4.0 mph6.4 kmh 30.05 in1017.6 mb 0.00 in0.0 mm 0.00 in0.0 mm 0.00 in0.0 mm
01:34 PM 51.0°F10.6°C 43.4°F6.3°C 75% Calm Calm 2.0 mph3.2 kmh 30.06 in1017.9 mb 0.00 in0.0 mm 0.00 in0.0 mm 0.00 in0.0 mm
01:29 PM 51.0°F10.6°C 43.7°F6.5°C 76% 1.0 mph E1.6 kmh E 2.0 mph3.2 kmh 30.06 in1017.9 mb 0.00 in0.0 mm 0.00 in0.0 mm 0.00 in0.0 mm
01:24 PM 51.1°F10.6°C 43.1°F6.2°C 74% 1.0 mph E1.6 kmh E 2.0 mph3.2 kmh 30.06 in1017.9 mb 0.00 in0.0 mm 0.00 in0.0 mm 0.00 in0.0 mm
01:19 PM 51.0°F10.6°C 43.4°F6.3°C 75% 2.0 mph NE3.2 kmh NE 2.0 mph3.2 kmh 30.06 in1017.9 mb 0.00 in0.0 mm 0.00 in0.0 mm 0.00 in0.0 mm
01:14 PM 51.2°F10.7°C 43.6°F6.4°C 75% 2.0 mph SE3.2 kmh SE 3.0 mph4.8 kmh 30.07 in1018.3 mb 0.00 in0.0 mm 0.00 in0.0 mm 0.00 in0.0 mm
01:09 PM 51.4°F10.8°C 43.0°F6.1°C 73% 1.0 mph N1.6 kmh N 3.0 mph4.8 kmh 30.07 in1018.3 mb 0.00 in0.0 mm 0.00 in0.0 mm 0.00 in0.0 mm
01:04 PM 51.6°F10.9°C 42.9°F6.1°C 72% Calm Calm 6.0 mph9.7 kmh 30.07 in1018.3 mb 0.00 in0.0 mm 0.00 in0.0 mm 0.00 in0.0 mm
12:59 PM 52.0°F11.1°C 43.3°F6.3°C 72% 1.0 mph E1.6 kmh E 6.0 mph9.7 kmh 30.07 in1018.3 mb 0.00 in0.0 mm 0.00 in0.0 mm 0.00 in0.0 mm
12:54 PM 52.2°F11.2°C 43.4°F6.3°C 72% 2.0 mph NE3.2 kmh NE 6.0 mph9.7 kmh 30.07 in1018.3 mb 0.00 in0.0 mm 0.00 in0.0 mm 0.00 in0.0 mm
12:49 PM 51.9°F11.1°C 43.5°F6.4°C 73% 4.0 mph ESE6.4 kmh ESE 6.0 mph9.7 kmh 30.07 in1018.3 mb 0.00 in0.0 mm 0.00 in0.0 mm 0.00 in0.0 mm
12:44 PM 51.8°F11.0°C 42.0°F5.6°C 69% 1.0 mph SE1.6 kmh SE 5.0 mph8.0 kmh 30.07 in1018.3 mb 0.00 in0.0 mm 0.00 in0.0 mm 0.00 in0.0 mm
12:39 PM 51.9°F11.1°C 43.2°F6.2°C 72% 1.0 mph NW1.6 kmh NW 5.0 mph8.0 kmh 30.07 in1018.3 mb 0.00 in0.0 mm 0.00 in0.0 mm 0.00 in0.0 mm
12:34 PM 51.4°F10.8°C 41.9°F5.5°C 70% 1.0 mph NE1.6 kmh NE 5.0 mph8.0 kmh 30.08 in1018.6 mb 0.00 in0.0 mm 0.00 in0.0 mm 0.00 in0.0 mm
12:29 PM 51.2°F10.7°C 41.8°F5.4°C 70% 2.0 mph W3.2 kmh W 6.0 mph9.7 kmh 30.08 in1018.6 mb 0.00 in0.0 mm 0.00 in0.0 mm 0.00 in0.0 mm
12:24 PM 51.0°F10.6°C 41.9°F5.5°C 71% 1.0 mph SE1.6 kmh SE 6.0 mph9.7 kmh 30.09 in1019.0 mb 0.00 in0.0 mm 0.00 in0.0 mm 0.00 in0.0 mm
12:19 PM 51.0°F10.6°C 41.9°F5.5°C 71% 1.0 mph SE1.6 kmh SE 7.0 mph11.3 kmh 30.09 in1019.0 mb 0.00 in0.0 mm 0.00 in0.0 mm 0.00 in0.0 mm
12:14 PM 51.4°F10.8°C 42.7°F5.9°C 72% 1.0 mph NE1.6 kmh NE 7.0 mph11.3 kmh 30.09 in1019.0 mb 0.00 in0.0 mm 0.00 in0.0 mm 0.00 in0.0 mm
12:09 PM 50.9°F10.5°C 41.1°F5.1°C 69% 1.0 mph SE1.6 kmh SE 9.0 mph14.5 kmh 30.08 in1018.6 mb 0.00 in0.0 mm 0.00 in0.0 mm 0.00 in0.0 mm
12:04 PM 51.0°F10.6°C 41.6°F5.3°C 70% 1.0 mph E1.6 kmh E 9.0 mph14.5 kmh 30.09 in1019.0 mb 0.00 in0.0 mm 0.00 in0.0 mm 0.00 in0.0 mm
11:59 AM 51.0°F10.6°C 40.8°F4.9°C 68% Calm Calm 9.0 mph14.5 kmh 30.08 in1018.6 mb 0.00 in0.0 mm 0.00 in0.0 mm 0.00 in0.0 mm
11:54 AM 51.0°F10.6°C 41.2°F5.1°C 69% 1.0 mph ESE1.6 kmh ESE 9.0 mph14.5 kmh 30.08 in1018.6 mb 0.00 in0.0 mm 0.00 in0.0 mm 0.00 in0.0 mm
11:49 AM 50.9°F10.5°C 41.5°F5.3°C 70% Calm Calm 7.0 mph11.3 kmh 30.08 in1018.6 mb 0.00 in0.0 mm 0.00 in0.0 mm 0.00 in0.0 mm
11:44 AM 50.6°F10.3°C 40.8°F4.9°C 69% Calm Calm 7.0 mph11.3 kmh 30.09 in1019.0 mb 0.00 in0.0 mm 0.00 in0.0 mm 0.00 in0.0 mm
11:39 AM 50.4°F10.2°C 40.6°F4.8°C 69% 4.0 mph N6.4 kmh N 7.0 mph11.3 kmh 30.09 in1019.0 mb 0.00 in0.0 mm 0.00 in0.0 mm 0.00 in0.0 mm
11:34 AM 50.1°F10.1°C 40.7°F4.8°C 70% 1.0 mph ENE1.6 kmh ENE 4.0 mph6.4 kmh 30.10 in1019.3 mb 0.00 in0.0 mm 0.00 in0.0 mm 0.00 in0.0 mm
11:29 AM 50.3°F10.2°C 40.9°F4.9°C 70% 2.0 mph NNE3.2 kmh NNE 3.0 mph4.8 kmh 30.10 in1019.3 mb 0.00 in0.0 mm 0.00 in0.0 mm 0.00 in0.0 mm
11:24 AM 49.8°F9.9°C 40.4°F4.7°C 70% 1.0 mph NW1.6 kmh NW 5.0 mph8.0 kmh 30.11 in1019.6 mb 0.00 in0.0 mm 0.00 in0.0 mm 0.00 in0.0 mm
11:19 AM 49.9°F9.9°C 40.5°F4.7°C 70% Calm Calm 5.0 mph8.0 kmh 30.11 in1019.6 mb 0.00 in0.0 mm 0.00 in0.0 mm 0.00 in0.0 mm
11:14 AM 49.7°F9.8°C 39.6°F4.2°C 68% 1.0 mph NW1.6 kmh NW 5.0 mph8.0 kmh 30.11 in1019.6 mb 0.00 in0.0 mm 0.00 in0.0 mm 0.00 in0.0 mm
11:09 AM 49.8°F9.9°C 40.0°F4.4°C 69% 1.0 mph NE1.6 kmh NE 5.0 mph8.0 kmh 30.11 in1019.6 mb 0.00 in0.0 mm 0.00 in0.0 mm 0.00 in0.0 mm
11:04 AM 49.6°F9.8°C 40.2°F4.6°C 70% 1.0 mph NE1.6 kmh NE 4.0 mph6.4 kmh 30.12 in1020.0 mb 0.00 in0.0 mm 0.00 in0.0 mm 0.00 in0.0 mm
10:59 AM 49.5°F9.7°C 40.1°F4.5°C 70% Calm Calm 5.0 mph8.0 kmh 30.12 in1020.0 mb 0.00 in0.0 mm 0.00 in0.0 mm 0.00 in0.0 mm
10:54 AM 49.7°F9.8°C 39.9°F4.4°C 69% 2.0 mph NW3.2 kmh NW 5.0 mph8.0 kmh 30.12 in1020.0 mb 0.00 in0.0 mm 0.00 in0.0 mm 0.00 in0.0 mm
10:49 AM 49.6°F9.8°C 39.5°F4.2°C 68% Calm Calm 5.0 mph8.0 kmh 30.12 in1020.0 mb 0.00 in0.0 mm 0.00 in0.0 mm 0.00 in0.0 mm
10:44 AM 49.8°F9.9°C 39.7°F4.3°C 68% 3.0 mph E4.8 kmh E 5.0 mph8.0 kmh 30.12 in1020.0 mb 0.00 in0.0 mm 0.00 in0.0 mm 0.00 in0.0 mm
10:39 AM 49.9°F9.9°C 39.4°F4.1°C 67% 2.0 mph S3.2 kmh S 4.0 mph6.4 kmh 30.12 in1020.0 mb 0.00 in0.0 mm 0.00 in0.0 mm 0.00 in0.0 mm
10:34 AM 49.7°F9.8°C 40.3°F4.6°C 70% 2.0 mph NE3.2 kmh NE 3.0 mph4.8 kmh 30.12 in1020.0 mb 0.00 in0.0 mm 0.00 in0.0 mm 0.00 in0.0 mm
10:29 AM 49.7°F9.8°C 40.3°F4.6°C 70% 2.0 mph ESE3.2 kmh ESE 3.0 mph4.8 kmh 30.12 in1020.0 mb 0.00 in0.0 mm 0.00 in0.0 mm 0.00 in0.0 mm
10:24 AM 49.8°F9.9°C 40.0°F4.4°C 69% Calm Calm 8.0 mph12.9 kmh 30.12 in1020.0 mb 0.00 in0.0 mm 0.00 in0.0 mm 0.00 in0.0 mm
10:19 AM 49.9°F9.9°C 39.8°F4.3°C 68% 2.0 mph N3.2 kmh N 8.0 mph12.9 kmh 30.12 in1020.0 mb 0.00 in0.0 mm 0.00 in0.0 mm 0.00 in0.0 mm
10:14 AM 49.4°F9.7°C 38.9°F3.8°C 67% 2.0 mph NW3.2 kmh NW 8.0 mph12.9 kmh 30.12 in1020.0 mb 0.00 in0.0 mm 0.00 in0.0 mm 0.00 in0.0 mm
10:09 AM 49.2°F9.6°C 39.1°F3.9°C 68% 2.0 mph E3.2 kmh E 8.0 mph12.9 kmh 30.12 in1020.0 mb 0.00 in0.0 mm 0.00 in0.0 mm 0.00 in0.0 mm
10:04 AM 49.2°F9.6°C 39.1°F3.9°C 68% 2.0 mph WNW3.2 kmh WNW 10.0 mph16.1 kmh 30.12 in1020.0 mb 0.00 in0.0 mm 0.00 in0.0 mm 0.00 in0.0 mm
09:59 AM 49.1°F9.5°C 38.6°F3.7°C 67% 1.0 mph NW1.6 kmh NW 10.0 mph16.1 kmh 30.12 in1020.0 mb 0.00 in0.0 mm 0.00 in0.0 mm 0.00 in0.0 mm
09:54 AM 48.9°F9.4°C 38.4°F3.6°C 67% 2.0 mph NE3.2 kmh NE 10.0 mph16.1 kmh 30.12 in1020.0 mb 0.00 in0.0 mm 0.00 in0.0 mm 0.00 in0.0 mm
09:49 AM 48.7°F9.3°C 37.9°F3.3°C 66% 3.0 mph NNW4.8 kmh NNW 10.0 mph16.1 kmh 30.11 in1019.6 mb 0.00 in0.0 mm 0.00 in0.0 mm 0.00 in0.0 mm
09:44 AM 48.7°F9.3°C 38.2°F3.4°C 67% 2.0 mph NW3.2 kmh NW 7.0 mph11.3 kmh 30.11 in1019.6 mb 0.00 in0.0 mm 0.00 in0.0 mm 0.00 in0.0 mm
09:39 AM 48.6°F9.2°C 39.3°F4.1°C 70% 1.0 mph NNE1.6 kmh NNE 5.0 mph8.0 kmh 30.11 in1019.6 mb 0.00 in0.0 mm 0.00 in0.0 mm 0.00 in0.0 mm
09:34 AM 48.6°F9.2°C 39.6°F4.2°C 71% 2.0 mph NE3.2 kmh NE 4.0 mph6.4 kmh 30.12 in1020.0 mb 0.00 in0.0 mm 0.00 in0.0 mm 0.00 in0.0 mm
09:29 AM 48.6°F9.2°C 38.5°F3.6°C 68% Calm Calm 4.0 mph6.4 kmh 30.12 in1020.0 mb 0.00 in0.0 mm 0.00 in0.0 mm 0.00 in0.0 mm
09:24 AM 48.6°F9.2°C 38.5°F3.6°C 68% Calm Calm 6.0 mph9.7 kmh 30.12 in1020.0 mb 0.00 in0.0 mm 0.00 in0.0 mm 0.00 in0.0 mm
09:19 AM 48.5°F9.2°C 38.0°F3.3°C 67% 1.0 mph SSW1.6 kmh SSW 6.0 mph9.7 kmh 30.11 in1019.6 mb 0.00 in0.0 mm 0.00 in0.0 mm 0.00 in0.0 mm
09:14 AM 48.4°F9.1°C 38.0°F3.3°C 67% 2.0 mph NNE3.2 kmh NNE 9.0 mph14.5 kmh 30.12 in1020.0 mb 0.00 in0.0 mm 0.00 in0.0 mm 0.00 in0.0 mm
09:09 AM 48.3°F9.1°C 38.2°F3.4°C 68% 2.0 mph W3.2 kmh W 9.0 mph14.5 kmh 30.12 in1020.0 mb 0.00 in0.0 mm 0.00 in0.0 mm 0.00 in0.0 mm
09:04 AM 48.1°F8.9°C 37.7°F3.2°C 67% 1.0 mph N1.6 kmh N 10.0 mph16.1 kmh 30.12 in1020.0 mb 0.00 in0.0 mm 0.00 in0.0 mm 0.00 in0.0 mm
08:59 AM 48.0°F8.9°C 38.3°F3.5°C 69% 1.0 mph NW1.6 kmh NW 10.0 mph16.1 kmh 30.12 in1020.0 mb 0.00 in0.0 mm 0.00 in0.0 mm 0.00 in0.0 mm
08:54 AM 48.0°F8.9°C 37.9°F3.3°C 68% 1.0 mph NE1.6 kmh NE 12.0 mph19.3 kmh 30.12 in1020.0 mb 0.00 in0.0 mm 0.00 in0.0 mm 0.00 in0.0 mm
08:49 AM 48.0°F8.9°C 37.9°F3.3°C 68% 1.0 mph NNE1.6 kmh NNE 12.0 mph19.3 kmh 30.12 in1020.0 mb 0.00 in0.0 mm 0.00 in0.0 mm 0.00 in0.0 mm
08:44 AM 48.1°F8.9°C 37.7°F3.2°C 67% 2.0 mph WNW3.2 kmh WNW 12.0 mph19.3 kmh 30.12 in1020.0 mb 0.00 in0.0 mm 0.00 in0.0 mm 0.00 in0.0 mm
08:39 AM 48.2°F9.0°C 37.8°F3.2°C 67% 6.0 mph NE9.7 kmh NE 12.0 mph19.3 kmh 30.12 in1020.0 mb 0.00 in0.0 mm 0.00 in0.0 mm 0.00 in0.0 mm
08:34 AM 47.9°F8.8°C 37.9°F3.3°C 68% 3.0 mph NW4.8 kmh NW 8.0 mph12.9 kmh 30.12 in1020.0 mb 0.00 in0.0 mm 0.00 in0.0 mm 0.00 in0.0 mm
08:29 AM 47.8°F8.8°C 37.8°F3.2°C 68% 2.0 mph N3.2 kmh N 8.0 mph12.9 kmh 30.12 in1020.0 mb 0.00 in0.0 mm 0.00 in0.0 mm 0.00 in0.0 mm
08:24 AM 47.8°F8.8°C 37.8°F3.2°C 68% 2.0 mph NW3.2 kmh NW 8.0 mph12.9 kmh 30.13 in1020.3 mb 0.00 in0.0 mm 0.00 in0.0 mm 0.00 in0.0 mm
08:19 AM 47.7°F8.7°C 38.0°F3.3°C 69% 1.0 mph NNW1.6 kmh NNW 8.0 mph12.9 kmh 30.12 in1020.0 mb 0.00 in0.0 mm 0.00 in0.0 mm 0.00 in0.0 mm
08:14 AM 47.6°F8.7°C 37.2°F2.9°C 67% 2.0 mph N3.2 kmh N 8.0 mph12.9 kmh 30.13 in1020.3 mb 0.00 in0.0 mm 0.00 in0.0 mm 0.00 in0.0 mm
08:09 AM 47.4°F8.6°C 37.7°F3.2°C 69% 2.0 mph SW3.2 kmh SW 6.0 mph9.7 kmh 30.13 in1020.3 mb 0.00 in0.0 mm 0.00 in0.0 mm 0.00 in0.0 mm
08:04 AM 47.4°F8.6°C 37.4°F3.0°C 68% 4.0 mph NW6.4 kmh NW 6.0 mph9.7 kmh 30.13 in1020.3 mb 0.00 in0.0 mm 0.00 in0.0 mm 0.00 in0.0 mm
07:59 AM 47.7°F8.7°C 37.3°F2.9°C 67% 1.0 mph SW1.6 kmh SW 7.0 mph11.3 kmh 30.12 in1020.0 mb 0.00 in0.0 mm 0.00 in0.0 mm 0.00 in0.0 mm
07:54 AM 47.4°F8.6°C 37.0°F2.8°C 67% 4.0 mph NW6.4 kmh NW 7.0 mph11.3 kmh 30.13 in1020.3 mb 0.00 in0.0 mm 0.00 in0.0 mm 0.00 in0.0 mm
07:49 AM 47.3°F8.5°C 37.7°F3.2°C 69% 2.0 mph NNE3.2 kmh NNE 7.0 mph11.3 kmh 30.12 in1020.0 mb 0.00 in0.0 mm 0.00 in0.0 mm 0.00 in0.0 mm
07:44 AM 47.5°F8.6°C 37.5°F3.1°C 68% 3.0 mph NW4.8 kmh NW 7.0 mph11.3 kmh 30.12 in1020.0 mb 0.00 in0.0 mm 0.00 in0.0 mm 0.00 in0.0 mm
07:39 AM 47.3°F8.5°C 37.3°F2.9°C 68% 2.0 mph SSW3.2 kmh SSW 10.0 mph16.1 kmh 30.12 in1020.0 mb 0.00 in0.0 mm 0.00 in0.0 mm 0.00 in0.0 mm
07:34 AM 47.3°F8.5°C 36.9°F2.7°C 67% 3.0 mph S4.8 kmh S 10.0 mph16.1 kmh 30.12 in1020.0 mb 0.00 in0.0 mm 0.00 in0.0 mm 0.00 in0.0 mm
07:29 AM 47.4°F8.6°C 37.0°F2.8°C 67% 4.0 mph WNW6.4 kmh WNW 10.0 mph16.1 kmh 30.13 in1020.3 mb 0.00 in0.0 mm 0.00 in0.0 mm 0.00 in0.0 mm
07:24 AM 47.1°F8.4°C 37.5°F3.1°C 69% Calm Calm 10.0 mph16.1 kmh 30.12 in1020.0 mb 0.00 in0.0 mm 0.00 in0.0 mm 0.00 in0.0 mm
07:19 AM 47.6°F8.7°C 37.6°F3.1°C 68% Calm Calm 2.0 mph3.2 kmh 30.12 in1020.0 mb 0.00 in0.0 mm 0.00 in0.0 mm 0.00 in0.0 mm
07:12 AM 47.7°F8.7°C 37.3°F2.9°C 67% 1.0 mph NW1.6 kmh NW 6.0 mph9.7 kmh 30.12 in1020.0 mb 0.00 in0.0 mm 0.00 in0.0 mm 0.00 in0.0 mm
07:07 AM 47.6°F8.7°C 36.8°F2.7°C 66% 4.0 mph NNW6.4 kmh NNW 6.0 mph9.7 kmh 30.12 in1020.0 mb 0.00 in0.0 mm 0.00 in0.0 mm 0.00 in0.0 mm
07:02 AM 47.7°F8.7°C 36.5°F2.5°C 65% 1.0 mph NNW1.6 kmh NNW 6.0 mph9.7 kmh 30.12 in1020.0 mb 0.00 in0.0 mm 0.00 in0.0 mm 0.00 in0.0 mm
06:57 AM 47.4°F8.6°C 37.0°F2.8°C 67% 2.0 mph E3.2 kmh E 10.0 mph16.1 kmh 30.12 in1020.0 mb 0.00 in0.0 mm 0.00 in0.0 mm 0.00 in0.0 mm
06:52 AM 47.6°F8.7°C 36.8°F2.7°C 66% 3.0 mph 4.8 kmh 10.0 mph16.1 kmh 30.12 in1020.0 mb 0.00 in0.0 mm 0.00 in0.0 mm 0.00 in0.0 mm
06:47 AM 48.0°F8.9°C 36.4°F2.4°C 64% 2.0 mph NW3.2 kmh NW 10.0 mph16.1 kmh 30.12 in1020.0 mb 0.00 in0.0 mm 0.00 in0.0 mm 0.00 in0.0 mm
06:42 AM 47.5°F8.6°C 36.7°F2.6°C 66% 9.0 mph N14.5 kmh N 10.0 mph16.1 kmh 30.12 in1020.0 mb 0.00 in0.0 mm 0.00 in0.0 mm 0.00 in0.0 mm
06:37 AM 47.3°F8.5°C 37.7°F3.2°C 69% 2.0 mph 3.2 kmh 5.0 mph8.0 kmh 30.11 in1019.6 mb 0.00 in0.0 mm 0.00 in0.0 mm 0.00 in0.0 mm
06:32 AM 47.5°F8.6°C 36.7°F2.6°C 66% 1.0 mph SE1.6 kmh SE 10.0 mph16.1 kmh 30.12 in1020.0 mb 0.00 in0.0 mm 0.00 in0.0 mm 0.00 in0.0 mm
06:27 AM 47.3°F8.5°C 36.9°F2.7°C 67% 3.0 mph N4.8 kmh N 10.0 mph16.1 kmh 30.12 in1020.0 mb 0.00 in0.0 mm 0.00 in0.0 mm 0.00 in0.0 mm
06:22 AM 47.4°F8.6°C 36.6°F2.6°C 66% 1.0 mph WNW1.6 kmh WNW 10.0 mph16.1 kmh 30.12 in1020.0 mb 0.00 in0.0 mm 0.00 in0.0 mm 0.00 in0.0 mm
06:17 AM 47.2°F8.4°C 36.8°F2.7°C 67% 3.0 mph ESE4.8 kmh ESE 10.0 mph16.1 kmh 30.11 in1019.6 mb 0.00 in0.0 mm 0.00 in0.0 mm 0.00 in0.0 mm
06:12 AM 47.1°F8.4°C 37.1°F2.8°C 68% 2.0 mph S3.2 kmh S 9.0 mph14.5 kmh 30.11 in1019.6 mb 0.00 in0.0 mm 0.00 in0.0 mm 0.00 in0.0 mm
06:07 AM 47.2°F8.4°C 36.4°F2.4°C 66% 1.0 mph N1.6 kmh N 9.0 mph14.5 kmh 30.11 in1019.6 mb 0.00 in0.0 mm 0.00 in0.0 mm 0.00 in0.0 mm
06:02 AM 47.3°F8.5°C 36.5°F2.5°C 66% 1.0 mph N1.6 kmh N 9.0 mph14.5 kmh 30.11 in1019.6 mb 0.00 in0.0 mm 0.00 in0.0 mm 0.00 in0.0 mm
05:57 AM 47.3°F8.5°C 36.9°F2.7°C 67% 6.0 mph NNW9.7 kmh NNW 9.0 mph14.5 kmh 30.12 in1020.0 mb 0.00 in0.0 mm 0.00 in0.0 mm 0.00 in0.0 mm
05:52 AM 47.1°F8.4°C 37.1°F2.8°C 68% 2.0 mph N3.2 kmh N 10.0 mph16.1 kmh 30.12 in1020.0 mb 0.00 in0.0 mm 0.00 in0.0 mm 0.00 in0.0 mm
05:47 AM 47.1°F8.4°C 36.3°F2.4°C 66% 4.0 mph NW6.4 kmh NW 10.0 mph16.1 kmh 30.12 in1020.0 mb 0.00 in0.0 mm 0.00 in0.0 mm 0.00 in0.0 mm
05:42 AM 47.3°F8.5°C 36.9°F2.7°C 67% 3.0 mph NW4.8 kmh NW 10.0 mph16.1 kmh 30.12 in1020.0 mb 0.00 in0.0 mm 0.00 in0.0 mm 0.00 in0.0 mm
05:37 AM 47.3°F8.5°C 36.9°F2.7°C 67% 2.0 mph N3.2 kmh N 10.0 mph16.1 kmh 30.12 in1020.0 mb 0.00 in0.0 mm 0.00 in0.0 mm 0.00 in0.0 mm
05:32 AM 47.1°F8.4°C 36.7°F2.6°C 67% 5.0 mph N8.0 kmh N 9.0 mph14.5 kmh 30.12 in1020.0 mb 0.00 in0.0 mm 0.00 in0.0 mm 0.00 in0.0 mm
05:27 AM 47.0°F8.3°C 37.0°F2.8°C 68% 2.0 mph NNE3.2 kmh NNE 10.0 mph16.1 kmh 30.12 in1020.0 mb 0.00 in0.0 mm 0.00 in0.0 mm 0.00 in0.0 mm
05:22 AM 47.0°F8.3°C 36.6°F2.6°C 67% 2.0 mph NNW3.2 kmh NNW 10.0 mph16.1 kmh 30.12 in1020.0 mb 0.00 in0.0 mm 0.00 in0.0 mm 0.00 in0.0 mm
05:17 AM 46.9°F8.3°C 36.1°F2.3°C 66% 2.0 mph WSW3.2 kmh WSW 10.0 mph16.1 kmh 30.12 in1020.0 mb 0.00 in0.0 mm 0.00 in0.0 mm 0.00 in0.0 mm
05:12 AM 46.7°F8.2°C 37.1°F2.8°C 69% 3.0 mph NNW4.8 kmh NNW 10.0 mph16.1 kmh 30.12 in1020.0 mb 0.00 in0.0 mm 0.00 in0.0 mm 0.00 in0.0 mm
05:07 AM 46.5°F8.1°C 37.3°F2.9°C 70% 1.0 mph N1.6 kmh N 8.0 mph12.9 kmh 30.12 in1020.0 mb 0.00 in0.0 mm 0.00 in0.0 mm 0.00 in0.0 mm
05:02 AM 46.5°F8.1°C 37.3°F2.9°C 70% 4.0 mph NNW6.4 kmh NNW 8.0 mph12.9 kmh 30.12 in1020.0 mb 0.00 in0.0 mm 0.00 in0.0 mm 0.00 in0.0 mm
04:57 AM 46.4°F8.0°C 37.5°F3.1°C 71% 2.0 mph WNW3.2 kmh WNW 8.0 mph12.9 kmh 30.12 in1020.0 mb 0.00 in0.0 mm 0.00 in0.0 mm 0.00 in0.0 mm
04:52 AM 46.3°F7.9°C 37.4°F3.0°C 71% Calm Calm 8.0 mph12.9 kmh 30.12 in1020.0 mb 0.00 in0.0 mm 0.00 in0.0 mm 0.00 in0.0 mm
04:47 AM 46.7°F8.2°C 37.4°F3.0°C 70% 1.0 mph NW1.6 kmh NW 8.0 mph12.9 kmh 30.12 in1020.0 mb 0.00 in0.0 mm 0.00 in0.0 mm 0.00 in0.0 mm
04:42 AM 46.8°F8.2°C 37.2°F2.9°C 69% 1.0 mph WNW1.6 kmh WNW 8.0 mph12.9 kmh 30.12 in1020.0 mb 0.00 in0.0 mm 0.00 in0.0 mm 0.00 in0.0 mm
04:37 AM 46.5°F8.1°C 37.3°F2.9°C 70% 3.0 mph NW4.8 kmh NW 6.0 mph9.7 kmh 30.12 in1020.0 mb 0.00 in0.0 mm 0.00 in0.0 mm 0.00 in0.0 mm
04:32 AM 46.6°F8.1°C 37.3°F2.9°C 70% 2.0 mph NNW3.2 kmh NNW 6.0 mph9.7 kmh 30.12 in1020.0 mb 0.00 in0.0 mm 0.00 in0.0 mm 0.00 in0.0 mm
04:27 AM 46.6°F8.1°C 37.3°F2.9°C 70% 1.0 mph NNE1.6 kmh NNE 5.0 mph8.0 kmh 30.13 in1020.3 mb 0.00 in0.0 mm 0.00 in0.0 mm 0.00 in0.0 mm
04:22 AM 46.6°F8.1°C 37.3°F2.9°C 70% 2.0 mph NW3.2 kmh NW 8.0 mph12.9 kmh 30.13 in1020.3 mb 0.00 in0.0 mm 0.00 in0.0 mm 0.00 in0.0 mm
04:17 AM 46.7°F8.2°C 37.1°F2.8°C 69% 3.0 mph WNW4.8 kmh WNW 8.0 mph12.9 kmh 30.13 in1020.3 mb 0.00 in0.0 mm 0.00 in0.0 mm 0.00 in0.0 mm
04:12 AM 46.7°F8.2°C 36.7°F2.6°C 68% 1.0 mph NNW1.6 kmh NNW 8.0 mph12.9 kmh 30.13 in1020.3 mb 0.00 in0.0 mm 0.00 in0.0 mm 0.00 in0.0 mm
04:07 AM 46.6°F8.1°C 37.0°F2.8°C 69% Calm Calm 8.0 mph12.9 kmh 30.13 in1020.3 mb 0.00 in0.0 mm 0.00 in0.0 mm 0.00 in0.0 mm
04:02 AM 46.3°F7.9°C 37.4°F3.0°C 71% 1.0 mph NE1.6 kmh NE 5.0 mph8.0 kmh 30.13 in1020.3 mb 0.00 in0.0 mm 0.00 in0.0 mm 0.00 in0.0 mm
03:57 AM 46.4°F8.0°C 37.2°F2.9°C 70% 1.0 mph NW1.6 kmh NW 6.0 mph9.7 kmh 30.14 in1020.7 mb 0.00 in0.0 mm 0.00 in0.0 mm 0.00 in0.0 mm
03:52 AM 46.3°F7.9°C 37.4°F3.0°C 71% 4.0 mph NW6.4 kmh NW 6.0 mph9.7 kmh 30.14 in1020.7 mb 0.00 in0.0 mm 0.00 in0.0 mm 0.00 in0.0 mm
03:47 AM 46.5°F8.1°C 37.3°F2.9°C 70% 1.0 mph NW1.6 kmh NW 8.0 mph12.9 kmh 30.14 in1020.7 mb 0.00 in0.0 mm 0.00 in0.0 mm 0.00 in0.0 mm
03:42 AM 46.5°F8.1°C 37.3°F2.9°C 70% 2.0 mph NW3.2 kmh NW 8.0 mph12.9 kmh 30.14 in1020.7 mb 0.00 in0.0 mm 0.00 in0.0 mm 0.00 in0.0 mm
03:37 AM 46.1°F7.8°C 36.9°F2.7°C 70% 2.0 mph W3.2 kmh W 8.0 mph12.9 kmh 30.14 in1020.7 mb 0.00 in0.0 mm 0.00 in0.0 mm 0.00 in0.0 mm
03:32 AM 45.8°F7.7°C 37.3°F2.9°C 72% 2.0 mph N3.2 kmh N 8.0 mph12.9 kmh 30.14 in1020.7 mb 0.00 in0.0 mm 0.00 in0.0 mm 0.00 in0.0 mm
03:27 AM 45.8°F7.7°C 37.6°F3.1°C 73% 3.0 mph WNW4.8 kmh WNW 3.0 mph4.8 kmh 30.15 in1021.0 mb 0.00 in0.0 mm 0.00 in0.0 mm 0.00 in0.0 mm
03:22 AM 45.9°F7.7°C 37.4°F3.0°C 72% 2.0 mph SW3.2 kmh SW 3.0 mph4.8 kmh 30.15 in1021.0 mb 0.00 in0.0 mm 0.00 in0.0 mm 0.00 in0.0 mm
03:17 AM 45.8°F7.7°C 37.6°F3.1°C 73% 1.0 mph WNW1.6 kmh WNW 3.0 mph4.8 kmh 30.15 in1021.0 mb 0.00 in0.0 mm 0.00 in0.0 mm 0.00 in0.0 mm
03:12 AM 45.6°F7.6°C 37.5°F3.1°C 73% 1.0 mph NNW1.6 kmh NNW 3.0 mph4.8 kmh 30.15 in1021.0 mb 0.00 in0.0 mm 0.00 in0.0 mm 0.00 in0.0 mm
03:07 AM 45.7°F7.6°C 37.9°F3.3°C 74% 3.0 mph SE4.8 kmh SE 3.0 mph4.8 kmh 30.15 in1021.0 mb 0.00 in0.0 mm 0.00 in0.0 mm 0.00 in0.0 mm
03:02 AM 45.8°F7.7°C 37.6°F3.1°C 73% 2.0 mph WNW3.2 kmh WNW 4.0 mph6.4 kmh 30.15 in1021.0 mb 0.00 in0.0 mm 0.00 in0.0 mm 0.00 in0.0 mm
02:57 AM 45.8°F7.7°C 37.6°F3.1°C 73% 1.0 mph WNW1.6 kmh WNW 4.0 mph6.4 kmh 30.16 in1021.3 mb 0.00 in0.0 mm 0.00 in0.0 mm 0.00 in0.0 mm
02:52 AM 45.8°F7.7°C 37.6°F3.1°C 73% 1.0 mph S1.6 kmh S 4.0 mph6.4 kmh 30.16 in1021.3 mb 0.00 in0.0 mm 0.00 in0.0 mm 0.00 in0.0 mm
02:47 AM 45.9°F7.7°C 38.1°F3.4°C 74% 1.0 mph SSW1.6 kmh SSW 4.0 mph6.4 kmh 30.16 in1021.3 mb 0.00 in0.0 mm 0.00 in0.0 mm 0.00 in0.0 mm
02:42 AM 46.0°F7.8°C 37.8°F3.2°C 73% 2.0 mph NW3.2 kmh NW 4.0 mph6.4 kmh 30.16 in1021.3 mb 0.00 in0.0 mm 0.00 in0.0 mm 0.00 in0.0 mm
02:37 AM 46.0°F7.8°C 37.5°F3.1°C 72% 1.0 mph NNW1.6 kmh NNW 4.0 mph6.4 kmh 30.16 in1021.3 mb 0.00 in0.0 mm 0.00 in0.0 mm 0.00 in0.0 mm
02:32 AM 46.2°F7.9°C 37.7°F3.2°C 72% 2.0 mph WSW3.2 kmh WSW 5.0 mph8.0 kmh 30.16 in1021.3 mb 0.00 in0.0 mm 0.00 in0.0 mm 0.00 in0.0 mm
02:27 AM 46.5°F8.1°C 37.6°F3.1°C 71% Calm Calm 5.0 mph8.0 kmh 30.16 in1021.3 mb 0.00 in0.0 mm 0.00 in0.0 mm 0.00 in0.0 mm
02:22 AM 46.5°F8.1°C 37.6°F3.1°C 71% 4.0 mph NW6.4 kmh NW 9.0 mph14.5 kmh 30.16 in1021.3 mb 0.00 in0.0 mm 0.00 in0.0 mm 0.00 in0.0 mm
02:17 AM 46.5°F8.1°C 37.6°F3.1°C 71% 3.0 mph NNW4.8 kmh NNW 9.0 mph14.5 kmh 30.16 in1021.3 mb 0.00 in0.0 mm 0.00 in0.0 mm 0.00 in0.0 mm
02:12 AM 46.7°F8.2°C 37.4°F3.0°C 70% 1.0 mph NNE1.6 kmh NNE 9.0 mph14.5 kmh 30.16 in1021.3 mb 0.00 in0.0 mm 0.00 in0.0 mm 0.00 in0.0 mm
02:07 AM 46.8°F8.2°C 37.2°F2.9°C 69% 1.0 mph NE1.6 kmh NE 9.0 mph14.5 kmh 30.16 in1021.3 mb 0.00 in0.0 mm 0.00 in0.0 mm 0.00 in0.0 mm
02:02 AM 46.5°F8.1°C 37.3°F2.9°C 70% 6.0 mph 9.7 kmh 8.0 mph12.9 kmh 30.17 in1021.7 mb 0.00 in0.0 mm 0.00 in0.0 mm 0.00 in0.0 mm
01:57 AM 46.4°F8.0°C 37.5°F3.1°C 71% 1.0 mph E1.6 kmh E 6.0 mph9.7 kmh 30.17 in1021.7 mb 0.00 in0.0 mm 0.00 in0.0 mm 0.00 in0.0 mm
01:52 AM 46.3°F7.9°C 37.4°F3.0°C 71% 1.0 mph NE1.6 kmh NE 6.0 mph9.7 kmh 30.17 in1021.7 mb 0.00 in0.0 mm 0.00 in0.0 mm 0.00 in0.0 mm
01:47 AM 46.1°F7.8°C 37.2°F2.9°C 71% 3.0 mph NNW4.8 kmh NNW 6.0 mph9.7 kmh 30.17 in1021.7 mb 0.00 in0.0 mm 0.00 in0.0 mm 0.00 in0.0 mm
01:42 AM 46.1°F7.8°C 36.9°F2.7°C 70% 1.0 mph NW1.6 kmh NW 4.0 mph6.4 kmh 30.17 in1021.7 mb 0.00 in0.0 mm 0.00 in0.0 mm 0.00 in0.0 mm
01:37 AM 46.2°F7.9°C 37.3°F2.9°C 71% Calm Calm 4.0 mph6.4 kmh 30.17 in1021.7 mb 0.00 in0.0 mm 0.00 in0.0 mm 0.00 in0.0 mm
01:32 AM 46.3°F7.9°C 37.4°F3.0°C 71% Calm Calm 4.0 mph6.4 kmh 30.17 in1021.7 mb 0.00 in0.0 mm 0.00 in0.0 mm 0.00 in0.0 mm
01:27 AM 46.4°F8.0°C 37.2°F2.9°C 70% 3.0 mph N4.8 kmh N 5.0 mph8.0 kmh 30.18 in1022.0 mb 0.00 in0.0 mm 0.00 in0.0 mm 0.00 in0.0 mm
01:22 AM 46.3°F7.9°C 37.1°F2.8°C 70% 1.0 mph S1.6 kmh S 5.0 mph8.0 kmh 30.18 in1022.0 mb 0.00 in0.0 mm 0.00 in0.0 mm 0.00 in0.0 mm
01:17 AM 46.5°F8.1°C 37.3°F2.9°C 70% 2.0 mph NNW3.2 kmh NNW 5.0 mph8.0 kmh 30.18 in1022.0 mb 0.00 in0.0 mm 0.00 in0.0 mm 0.00 in0.0 mm
01:12 AM 46.4°F8.0°C 37.5°F3.1°C 71% 2.0 mph N3.2 kmh N 5.0 mph8.0 kmh 30.18 in1022.0 mb 0.00 in0.0 mm 0.00 in0.0 mm 0.00 in0.0 mm
01:07 AM 46.5°F8.1°C 38.0°F3.3°C 72% 3.0 mph N4.8 kmh N 5.0 mph8.0 kmh 30.17 in1021.7 mb 0.00 in0.0 mm 0.00 in0.0 mm 0.00 in0.0 mm
01:02 AM 46.8°F8.2°C 37.9°F3.3°C 71% 2.0 mph NW3.2 kmh NW 8.0 mph12.9 kmh 30.18 in1022.0 mb 0.00 in0.0 mm 0.00 in0.0 mm 0.00 in0.0 mm
12:57 AM 46.9°F8.3°C 37.3°F2.9°C 69% 2.0 mph N3.2 kmh N 8.0 mph12.9 kmh 30.18 in1022.0 mb 0.00 in0.0 mm 0.00 in0.0 mm 0.00 in0.0 mm
12:52 AM 47.0°F8.3°C 37.4°F3.0°C 69% 4.0 mph NW6.4 kmh NW 8.0 mph12.9 kmh 30.19 in1022.4 mb 0.00 in0.0 mm 0.00 in0.0 mm 0.00 in0.0 mm
12:47 AM 46.9°F8.3°C 37.3°F2.9°C 69% 1.0 mph N1.6 kmh N 8.0 mph12.9 kmh 30.19 in1022.4 mb 0.00 in0.0 mm 0.00 in0.0 mm 0.00 in0.0 mm
12:42 AM 46.9°F8.3°C 37.3°F2.9°C 69% 1.0 mph N1.6 kmh N 5.0 mph8.0 kmh 30.20 in1022.7 mb 0.00 in0.0 mm 0.00 in0.0 mm 0.00 in0.0 mm
12:37 AM 46.9°F8.3°C 37.3°F2.9°C 69% 1.0 mph NW1.6 kmh NW 4.0 mph6.4 kmh 30.20 in1022.7 mb 0.00 in0.0 mm 0.00 in0.0 mm 0.00 in0.0 mm
12:32 AM 47.0°F8.3°C 37.7°F3.2°C 70% 2.0 mph N3.2 kmh N 5.0 mph8.0 kmh 30.20 in1022.7 mb 0.00 in0.0 mm 0.00 in0.0 mm 0.00 in0.0 mm
12:27 AM 47.2°F8.4°C 37.6°F3.1°C 69% Calm Calm 5.0 mph8.0 kmh 30.20 in1022.7 mb 0.00 in0.0 mm 0.00 in0.0 mm 0.00 in0.0 mm
12:22 AM 47.0°F8.3°C 37.4°F3.0°C 69% 1.0 mph N1.6 kmh N 5.0 mph8.0 kmh 30.20 in1022.7 mb 0.00 in0.0 mm 0.00 in0.0 mm 0.00 in0.0 mm
12:17 AM 47.1°F8.4°C 38.2°F3.4°C 71% 2.0 mph WNW3.2 kmh WNW 5.0 mph8.0 kmh 30.20 in1022.7 mb 0.00 in0.0 mm 0.00 in0.0 mm 0.00 in0.0 mm
12:12 AM 47.1°F8.4°C 37.1°F2.8°C 68% 2.0 mph 3.2 kmh 5.0 mph8.0 kmh 30.20 in1022.7 mb 0.00 in0.0 mm 0.00 in0.0 mm 0.00 in0.0 mm
12:07 AM 46.9°F8.3°C 38.0°F3.3°C 71% 2.0 mph NE3.2 kmh NE 5.0 mph8.0 kmh 30.21 in1023.0 mb 0.00 in0.0 mm 0.00 in0.0 mm 0.00 in0.0 mm
12:02 AM 47.1°F8.4°C 37.5°F3.1°C 69% 1.0 mph N1.6 kmh N 8.0 mph12.9 kmh 30.21 in1023.0 mb 0.00 in0.0 mm 0.00 in0.0 mm 0.00 in0.0 mm